Morveren — WDF6112 — position and weather

sailwx.info

Track history (hours):
 
Tides and Currents Weather Stations Pressure Air Temp Water Temp Dewpoint Dewpoint Depression Visibility Wind Speed Wind Dir Waves Ship Positions

Morveren

Owner: Demelza Charters LLP, Bellingham, WA. More information available from US FCC via Universal Licensing System and Coast Guard Vessel Documentation Center.

Last reported at 2018-Jun-21 18:35 UTC. Time now 2018-Jun-23 04:45 UTC.
Position N 50°21' W 125°08'.

Length 16 m.

Type: Pleasure craft. MMSI: 367470770.

Date/timePositionNaut miles runAvg speedWind from/ knotsBaromVisibWave heightAir tempDewpointWater temp
2018-Jun-21 18:35N 50°21' W 125°08'0 2.6
2018-Jun-21 18:24N 50°21' W 125°08'2 3.7
2018-Jun-21 17:58N 50°20' W 125°07'4 7.9
2018-Jun-21 17:30N 50°16' W 125°04'4 7.9
2018-Jun-21 17:00N 50°13' W 125°01'4 6.8
2018-Jun-21 16:29N 50°09' W 125°00'0 0.0
2018-Jun-21 02:39N 50°09' W 125°00'0 0.0
2018-Jun-21 02:18N 50°09' W 125°00'0 0.0
2018-Jun-21 01:57N 50°09' W 125°00'0 0.0
2018-Jun-21 01:27N 50°09' W 125°00'0 0.0
2018-Jun-21 01:00N 50°09' W 125°00'0 0.0
2018-Jun-21 00:30N 50°09' W 125°00'0 0.0
2018-Jun-21 00:00N 50°09' W 125°00'0 0.0
2018-Jun-20 23:30N 50°09' W 125°00'0 0.0
2018-Jun-20 22:51N 50°09' W 125°00'0 0.0
2018-Jun-20 22:30N 50°09' W 125°00'0 0.0
2018-Jun-20 21:57N 50°09' W 125°00'0 0.0
2018-Jun-20 19:56N 50°09' W 125°00'3 7.4
2018-Jun-20 19:30N 50°12' W 125°00'2 4.0
2018-Jun-20 19:00N 50°14' W 124°59'4 8.8
2018-Jun-20 18:30N 50°11' W 124°55'2 3.5
2018-Jun-20 17:55N 50°11' W 124°52'3 6.3
2018-Jun-20 17:30N 50°09' W 124°54'3 6.8
2018-Jun-20 16:59N 50°07' W 124°50'4 7.9
2018-Jun-20 16:30N 50°08' W 124°44'2 0.1
2018-Jun-20 02:24N 50°08' W 124°41'0 0.0
2018-Jun-20 02:00N 50°08' W 124°41'0 0.0
2018-Jun-20 01:30N 50°08' W 124°41'0 0.0
2018-Jun-20 01:00N 50°08' W 124°41'0 0.0
2018-Jun-20 00:30N 50°08' W 124°41'0 0.0
2018-Jun-20 00:00N 50°08' W 124°41'0 0.0
2018-Jun-19 23:30N 50°08' W 124°41'0 0.0
2018-Jun-19 23:00N 50°08' W 124°41'0 0.0
2018-Jun-19 22:30N 50°08' W 124°41'0 0.0
2018-Jun-19 22:00N 50°08' W 124°41'0 0.0
2018-Jun-19 21:30N 50°08' W 124°41'0 0.0
2018-Jun-19 21:00N 50°08' W 124°41'0 0.0
2018-Jun-19 20:30N 50°08' W 124°41'1 1.9
2018-Jun-19 20:00N 50°08' W 124°43'5 9.0
2018-Jun-19 19:29N 50°07' W 124°50'1 0.5
2018-Jun-19 17:36N 50°07' W 124°50'0 2.9
2018-Jun-19 17:30N 50°07' W 124°51'4 8.4
2018-Jun-19 17:00N 50°04' W 124°48'2 0.1
2018-Jun-18 21:19N 50°03' W 124°45'0 0.9
2018-Jun-18 20:56N 50°03' W 124°45'2 5.7
2018-Jun-18 20:30N 50°04' W 124°48'3 6.0
2018-Jun-18 20:00N 50°01' W 124°49'812.0
2018-Jun-18 19:22N 49°55' W 124°42'410.7
2018-Jun-18 18:59N 49°52' W 124°37'76 2.9
2018-Jun-17 16:51N 48°52' W 123°26'2 5.0
2018-Jun-17 16:29N 48°50' W 123°26'1 0.1
2018-Jun-16 23:02N 48°50' W 123°28'111.6
2018-Jun-16 22:59N 48°50' W 123°27'  
2018-Jun-11 18:51N 48°25' W 123°18'  
Track history (hours):
 
Tides and Currents Weather Stations Pressure Air Temp Water Temp Dewpoint Dewpoint Depression Visibility Wind Speed Wind Dir Waves Ship Positions

Morveren

Owner: Demelza Charters LLP, Bellingham, WA. More information available from US FCC via Universal Licensing System and Coast Guard Vessel Documentation Center.

Last reported at 2018-Jun-21 18:35 UTC. Time now 2018-Jun-23 04:45 UTC.
Position N 50°21' W 125°08'.

Length 16 m.

Type: Pleasure craft. MMSI: 367470770.

Date/timePositionNaut miles runAvg speedWind from/ knotsBaromVisibWave heightAir tempDewpointWater temp
2018-Jun-21 18:35N 50°21' W 125°08'0 2.6
2018-Jun-21 18:24N 50°21' W 125°08'2 3.7
2018-Jun-21 17:58N 50°20' W 125°07'4 7.9
2018-Jun-21 17:30N 50°16' W 125°04'4 7.9
2018-Jun-21 17:00N 50°13' W 125°01'4 6.8
2018-Jun-21 16:29N 50°09' W 125°00'0 0.0
2018-Jun-21 02:39N 50°09' W 125°00'0 0.0
2018-Jun-21 02:18N 50°09' W 125°00'0 0.0
2018-Jun-21 01:57N 50°09' W 125°00'0 0.0
2018-Jun-21 01:27N 50°09' W 125°00'0 0.0
2018-Jun-21 01:00N 50°09' W 125°00'0 0.0
2018-Jun-21 00:30N 50°09' W 125°00'0 0.0
2018-Jun-21 00:00N 50°09' W 125°00'0 0.0
2018-Jun-20 23:30N 50°09' W 125°00'0 0.0
2018-Jun-20 22:51N 50°09' W 125°00'0 0.0
2018-Jun-20 22:30N 50°09' W 125°00'0 0.0
2018-Jun-20 21:57N 50°09' W 125°00'0 0.0
2018-Jun-20 19:56N 50°09' W 125°00'3 7.4
2018-Jun-20 19:30N 50°12' W 125°00'2 4.0
2018-Jun-20 19:00N 50°14' W 124°59'4 8.8
2018-Jun-20 18:30N 50°11' W 124°55'2 3.5
2018-Jun-20 17:55N 50°11' W 124°52'3 6.3
2018-Jun-20 17:30N 50°09' W 124°54'3 6.8
2018-Jun-20 16:59N 50°07' W 124°50'4 7.9
2018-Jun-20 16:30N 50°08' W 124°44'2 0.1
2018-Jun-20 02:24N 50°08' W 124°41'0 0.0
2018-Jun-20 02:00N 50°08' W 124°41'0 0.0
2018-Jun-20 01:30N 50°08' W 124°41'0 0.0
2018-Jun-20 01:00N 50°08' W 124°41'0 0.0
2018-Jun-20 00:30N 50°08' W 124°41'0 0.0
2018-Jun-20 00:00N 50°08' W 124°41'0 0.0
2018-Jun-19 23:30N 50°08' W 124°41'0 0.0
2018-Jun-19 23:00N 50°08' W 124°41'0 0.0
2018-Jun-19 22:30N 50°08' W 124°41'0 0.0
2018-Jun-19 22:00N 50°08' W 124°41'0 0.0
2018-Jun-19 21:30N 50°08' W 124°41'0 0.0
2018-Jun-19 21:00N 50°08' W 124°41'0 0.0
2018-Jun-19 20:30N 50°08' W 124°41'1 1.9
2018-Jun-19 20:00N 50°08' W 124°43'5 9.0
2018-Jun-19 19:29N 50°07' W 124°50'1 0.5
2018-Jun-19 17:36N 50°07' W 124°50'0 2.9
2018-Jun-19 17:30N 50°07' W 124°51'4 8.4
2018-Jun-19 17:00N 50°04' W 124°48'2 0.1
2018-Jun-18 21:19N 50°03' W 124°45'0 0.9
2018-Jun-18 20:56N 50°03' W 124°45'2 5.7
2018-Jun-18 20:30N 50°04' W 124°48'3 6.0
2018-Jun-18 20:00N 50°01' W 124°49'812.0
2018-Jun-18 19:22N 49°55' W 124°42'410.7
2018-Jun-18 18:59N 49°52' W 124°37'76 2.9
2018-Jun-17 16:51N 48°52' W 123°26'2 5.0
2018-Jun-17 16:29N 48°50' W 123°26'1 0.1
2018-Jun-16 23:02N 48°50' W 123°28'111.6
2018-Jun-16 22:59N 48°50' W 123°27'  
2018-Jun-11 18:51N 48°25' W 123°18'  

Dump ship's entire track history